createdAt,value
2022-10-21T00:00:18.884Z,96597.56
2022-10-21T00:02:46.519Z,96594.06
2022-10-21T00:05:13.514Z,96587.25
2022-10-21T00:07:40.598Z,96591.56
2022-10-21T00:10:08.313Z,96595.59
2022-10-21T00:12:35.441Z,96592.25
2022-10-21T00:15:08.093Z,96599.22
2022-10-21T00:17:39.263Z,96602.56
2022-10-21T00:20:09.122Z,96605.22
2022-10-21T00:22:36.345Z,96608.72
2022-10-21T00:25:04.161Z,96610.41
2022-10-21T00:27:31.098Z,96610.41
2022-10-21T00:29:57.702Z,96607.03
2022-10-21T00:32:24.381Z,96606.94
2022-10-21T00:34:50.926Z,96605.22
2022-10-21T00:37:20.377Z,96608.00
2022-10-21T00:39:46.951Z,96605.34
2022-10-21T00:42:20.253Z,96602.84
2022-10-21T00:45:10.032Z,96592.78
2022-10-21T00:47:45.345Z,96589.13
2022-10-21T00:50:42.627Z,96599.03
2022-10-21T00:53:13.286Z,96615.28
2022-10-21T00:55:45.515Z,96600.66
2022-10-21T00:58:12.365Z,96606.22
2022-10-21T01:00:39.114Z,96599.69
2022-10-21T01:03:06.480Z,96599.69
2022-10-21T01:05:33.465Z,96584.22
2022-10-21T01:08:00.677Z,96579.50
2022-10-21T01:10:28.795Z,96571.16
2022-10-21T01:12:58.405Z,96555.69
2022-10-21T01:15:34.007Z,96544.97
2022-10-21T01:18:16.299Z,96544.00
2022-10-21T01:21:03.113Z,96545.25
2022-10-21T01:24:03.993Z,96552.91
2022-10-21T01:26:30.494Z,96550.41
2022-10-21T01:29:09.141Z,96558.47
2022-10-21T01:31:43.497Z,96538.41
2022-10-21T01:34:20.806Z,96541.91
2022-10-21T01:37:15.760Z,96535.50
2022-10-21T01:39:49.223Z,96522.41
2022-10-21T01:42:24.602Z,96510.28
2022-10-21T01:44:59.282Z,96508.03
2022-10-21T01:47:32.009Z,96507.88
2022-10-21T01:50:05.947Z,96499.63
2022-10-21T01:52:32.582Z,96504.22
2022-10-21T01:55:06.599Z,96500.75
2022-10-21T01:57:42.127Z,96494.91
2022-10-21T02:00:09.600Z,96484.47
2022-10-21T02:02:42.254Z,96497.53
2022-10-21T02:05:17.263Z,96489.03
2022-10-21T02:07:43.895Z,96490.41
2022-10-21T02:10:10.679Z,96483.31
2022-10-21T02:12:40.463Z,96471.75
2022-10-21T02:15:11.389Z,96473.97
2022-10-21T02:17:41.044Z,96479.28
2022-10-21T02:20:12.041Z,96481.22
2022-10-21T02:22:41.384Z,96492.50
2022-10-21T02:25:14.733Z,96475.78
2022-10-21T02:27:41.405Z,96482.66
2022-10-21T02:30:08.681Z,96484.56
2022-10-21T02:32:39.290Z,96484.56
2022-10-21T02:35:17.943Z,96479.69
2022-10-21T02:37:50.430Z,96482.19
2022-10-21T02:40:42.257Z,96479.56
2022-10-21T02:43:33.608Z,96483.88
2022-10-21T02:46:05.793Z,96480.09
2022-10-21T02:48:38.220Z,96478.72
2022-10-21T02:51:07.490Z,96473.28
2022-10-21T02:53:35.050Z,96465.34
2022-10-21T02:56:02.070Z,96462.00
2022-10-21T02:58:29.493Z,96467.31
2022-10-21T03:00:56.297Z,96466.59
2022-10-21T03:03:23.047Z,96466.31
2022-10-21T03:05:49.686Z,96464.94
2022-10-21T03:08:16.625Z,96462.53
2022-10-21T03:10:43.303Z,96459.34
2022-10-21T03:13:10.032Z,96451.25
2022-10-21T03:15:36.582Z,96455.72
2022-10-21T03:18:03.230Z,96455.44
2022-10-21T03:20:29.773Z,96455.44
2022-10-21T03:22:56.334Z,96443.03
2022-10-21T03:25:22.939Z,96448.34
2022-10-21T03:27:52.665Z,96442.78
2022-10-21T03:30:19.422Z,96444.72
2022-10-21T03:32:46.031Z,96442.06
2022-10-21T03:35:12.612Z,96433.88
2022-10-21T03:37:39.266Z,96435.13
2022-10-21T03:40:09.943Z,96428.31
2022-10-21T03:42:39.235Z,96419.25
2022-10-21T03:45:06.375Z,96419.13
2022-10-21T03:47:32.971Z,96415.50
2022-10-21T03:49:59.525Z,96423.44
2022-10-21T03:52:26.114Z,96421.50
2022-10-21T03:54:52.670Z,96431.78
2022-10-21T03:57:19.437Z,96430.81
2022-10-21T03:59:46.237Z,96431.78
2022-10-21T04:02:12.867Z,96430.72
2022-10-21T04:04:39.462Z,96428.16
2022-10-21T04:07:06.030Z,96426.25
2022-10-21T04:09:32.616Z,96427.78
2022-10-21T04:11:59.203Z,96425.69
2022-10-21T04:14:25.792Z,96423.63
2022-10-21T04:17:02.164Z,96416.75
2022-10-21T04:19:29.351Z,96414.56
2022-10-21T04:21:55.907Z,96422.09
2022-10-21T04:24:22.483Z,96421.66
2022-10-21T04:26:49.027Z,96415.25
2022-10-21T04:29:15.594Z,96420.97
2022-10-21T04:31:42.251Z,96413.59
2022-10-21T04:34:08.881Z,96421.44
2022-10-21T04:36:35.751Z,96421.28
2022-10-21T04:39:02.335Z,96421.84
2022-10-21T04:41:29.086Z,96420.03
2022-10-21T04:43:55.724Z,96415.31
2022-10-21T04:46:22.353Z,96411.94
2022-10-21T04:48:48.954Z,96400.34
2022-10-21T04:51:15.571Z,96404.72
2022-10-21T04:53:42.305Z,96406.22
2022-10-21T04:56:08.942Z,96405.53
2022-10-21T04:58:35.521Z,96401.91
2022-10-21T05:01:02.113Z,96400.50
2022-10-21T05:03:28.757Z,96385.56
2022-10-21T05:05:55.328Z,96385.44
2022-10-21T05:08:22.429Z,96378.19
2022-10-21T05:10:49.082Z,96382.38
2022-10-21T05:13:15.692Z,96379.56
2022-10-21T05:15:42.353Z,96383.03
2022-10-21T05:18:08.940Z,96384.03
2022-10-21T05:20:35.588Z,96364.38
2022-10-21T05:23:02.191Z,96366.16
2022-10-21T05:25:31.772Z,96377.75
2022-10-21T05:28:00.869Z,96370.63
2022-10-21T05:30:27.490Z,96370.09
2022-10-21T05:32:54.094Z,96361.47
2022-10-21T05:35:20.664Z,96355.56
2022-10-21T05:37:47.251Z,96353.03
2022-10-21T05:40:13.937Z,96352.78
2022-10-21T05:42:40.838Z,96356.25
2022-10-21T05:45:08.258Z,96353.88
2022-10-21T05:47:34.804Z,96358.19
2022-10-21T05:50:01.503Z,96357.22
2022-10-21T05:52:28.068Z,96343.66
2022-10-21T05:54:54.652Z,96348.97
2022-10-21T05:57:21.378Z,96354.13
2022-10-21T05:59:47.993Z,96339.88
2022-10-21T06:02:14.608Z,96343.38
2022-10-21T06:04:41.271Z,96345.88
2022-10-21T06:07:07.882Z,96357.31
2022-10-21T06:09:34.686Z,96353.00
2022-10-21T06:12:01.314Z,96357.59
2022-10-21T06:14:27.956Z,96346.03
2022-10-21T06:16:54.854Z,96353.84
2022-10-21T06:19:21.517Z,96354.94
2022-10-21T06:21:48.704Z,96366.38
2022-10-21T06:24:15.854Z,96360.81
2022-10-21T06:26:42.548Z,96355.66
2022-10-21T06:29:09.172Z,96359.28
2022-10-21T06:31:35.752Z,96356.91
2022-10-21T06:34:02.371Z,96370.16
2022-10-21T06:36:30.173Z,96379.25
2022-10-21T06:38:56.818Z,96382.03
2022-10-21T06:41:23.678Z,96392.81
2022-10-21T06:43:50.261Z,96403.09
2022-10-21T06:46:17.663Z,96406.59
2022-10-21T06:48:44.296Z,96400.44
2022-10-21T06:51:15.045Z,96402.09
2022-10-21T06:53:42.790Z,96394.09
2022-10-21T06:56:12.375Z,96394.78
2022-10-21T06:58:43.340Z,96397.31
2022-10-21T07:01:27.212Z,96391.47
2022-10-21T07:03:59.530Z,96395.38
2022-10-21T07:06:26.196Z,96395.66
2022-10-21T07:09:00.217Z,96416.88
2022-10-21T07:11:28.243Z,96414.38
2022-10-21T07:13:55.385Z,96419.66
2022-10-21T07:16:25.698Z,96418.84
2022-10-21T07:18:53.010Z,96415.66
2022-10-21T07:21:21.804Z,96413.81
2022-10-21T07:23:51.291Z,96415.78
2022-10-21T07:26:20.377Z,96420.94
2022-10-21T07:28:47.982Z,96425.41
2022-10-21T07:31:19.405Z,96421.63
2022-10-21T07:33:46.557Z,96426.94
2022-10-21T07:36:14.873Z,96433.91
2022-10-21T07:38:46.457Z,96423.97
2022-10-21T07:41:24.286Z,96431.66
2022-10-21T07:43:52.199Z,96437.81
2022-10-21T07:46:20.687Z,96436.69
2022-10-21T07:48:48.182Z,96437.66
2022-10-21T07:51:20.698Z,96443.66
2022-10-21T07:53:50.472Z,96443.66
2022-10-21T07:56:29.661Z,96445.63
2022-10-21T07:58:56.768Z,96443.94
2022-10-21T08:01:23.469Z,96444.63
2022-10-21T08:03:54.003Z,96453.28
2022-10-21T08:06:21.588Z,96449.78
2022-10-21T08:08:48.310Z,96446.88
2022-10-21T08:11:29.208Z,96445.06
2022-10-21T08:13:56.731Z,96448.38
2022-10-21T08:16:24.379Z,96448.09
2022-10-21T08:18:51.185Z,96447.41
2022-10-21T08:21:17.905Z,96447.00
2022-10-21T08:23:44.932Z,96450.59
2022-10-21T08:26:14.125Z,96458.97
2022-10-21T08:28:41.226Z,96451.44
2022-10-21T08:31:17.415Z,96445.72
2022-10-21T08:33:45.105Z,96456.16
2022-10-21T08:36:23.507Z,96460.47
2022-10-21T08:38:50.318Z,96459.50
2022-10-21T08:41:28.783Z,96455.91
2022-10-21T08:44:28.096Z,96463.25
2022-10-21T08:47:06.871Z,96462.16
2022-10-21T08:49:45.410Z,96463.94
2022-10-21T08:52:21.444Z,96468.13
2022-10-21T08:54:58.471Z,96465.75
2022-10-21T08:57:25.575Z,96471.22
2022-10-21T08:59:52.662Z,96477.91
2022-10-21T09:02:51.305Z,96476.09
2022-10-21T09:05:56.212Z,96474.28
2022-10-21T09:08:41.058Z,96473.72
2022-10-21T09:11:29.016Z,96472.00
2022-10-21T09:14:42.138Z,96469.78
2022-10-21T09:17:14.678Z,96466.59
2022-10-21T09:19:59.088Z,96456.66
2022-10-21T09:22:56.689Z,96460.81
2022-10-21T09:25:33.246Z,96453.03
2022-10-21T09:28:08.833Z,96460.44
2022-10-21T09:30:35.630Z,96468.94
2022-10-21T09:33:02.588Z,96474.94
2022-10-21T09:35:40.995Z,96475.63
2022-10-21T09:38:10.328Z,96475.38
2022-10-21T09:40:37.110Z,96472.31
2022-10-21T09:43:06.161Z,96471.78
2022-10-21T09:45:35.958Z,96461.59
2022-10-21T09:48:17.892Z,96462.28
2022-10-21T09:50:46.995Z,96448.75
2022-10-21T09:53:21.440Z,96453.44
2022-10-21T09:55:56.183Z,96457.06
2022-10-21T09:58:28.245Z,96444.66
2022-10-21T10:00:56.093Z,96447.03
2022-10-21T10:03:37.614Z,96446.72
2022-10-21T10:06:05.867Z,96434.44
2022-10-21T10:08:44.623Z,96430.38
2022-10-21T10:11:14.230Z,96423.09
2022-10-21T10:13:42.604Z,96422.69
2022-10-21T10:16:32.310Z,96409.66
2022-10-21T10:19:20.753Z,96413.31
2022-10-21T10:22:10.262Z,96432.41
2022-10-21T10:24:40.531Z,96455.72
2022-10-21T10:27:14.271Z,96470.34
2022-10-21T10:29:42.444Z,96483.09
2022-10-21T10:32:16.339Z,96490.97
2022-10-21T10:34:52.132Z,96491.00
2022-10-21T10:37:22.385Z,96498.59
2022-10-21T10:39:55.629Z,96488.28
2022-10-21T10:42:26.382Z,96498.75
2022-10-21T10:44:55.776Z,96500.41
2022-10-21T10:47:29.325Z,96509.22
2022-10-21T10:49:56.049Z,96513.25
2022-10-21T10:52:24.515Z,96512.09
2022-10-21T10:55:16.457Z,96518.84
2022-10-21T10:57:59.038Z,96524.06
2022-10-21T11:00:41.089Z,96521.75
2022-10-21T11:03:14.457Z,96531.06
2022-10-21T11:05:51.089Z,96523.94
2022-10-21T11:08:39.341Z,96513.53
2022-10-21T11:11:28.675Z,96516.56
2022-10-21T11:13:56.924Z,96514.38
2022-10-21T11:17:01.479Z,96511.91
2022-10-21T11:19:52.867Z,96507.13
2022-10-21T11:22:34.449Z,96510.50
2022-10-21T11:25:16.132Z,96503.28
2022-10-21T11:27:55.198Z,96508.88
2022-10-21T11:30:28.594Z,96504.44
2022-10-21T11:33:01.399Z,96514.03
2022-10-21T11:35:49.083Z,96508.19
2022-10-21T11:38:30.971Z,96512.00
2022-10-21T11:41:20.820Z,96511.38
2022-10-21T11:43:52.435Z,96516.50
2022-10-21T11:46:45.175Z,96500.47
2022-10-21T11:49:37.189Z,96500.19
2022-10-21T11:52:13.061Z,96496.94
2022-10-21T11:55:08.873Z,96510.94
2022-10-21T11:57:44.202Z,96501.94
2022-10-21T12:00:17.567Z,96494.44
2022-10-21T12:02:55.461Z,96501.53
2022-10-21T12:05:31.782Z,96500.25
2022-10-21T12:08:04.323Z,96490.22
2022-10-21T12:10:45.150Z,96493.94
2022-10-21T12:13:26.460Z,96492.88
2022-10-21T12:15:58.975Z,96491.00
2022-10-21T12:18:28.782Z,96491.06
2022-10-21T12:20:58.486Z,96488.03
2022-10-21T12:23:29.382Z,96488.44
2022-10-21T12:26:17.843Z,96482.69
2022-10-21T12:29:14.890Z,96480.56
2022-10-21T12:32:05.967Z,96474.91
2022-10-21T12:34:33.370Z,96478.22
2022-10-21T12:37:02.377Z,96483.00
2022-10-21T12:39:35.319Z,96485.03
2022-10-21T12:42:15.940Z,96489.97
2022-10-21T12:44:47.918Z,96489.47
2022-10-21T12:47:44.514Z,96495.16
2022-10-21T12:50:13.890Z,96500.16
2022-10-21T12:52:45.167Z,96495.28
2022-10-21T12:55:24.652Z,96490.69
2022-10-21T12:58:05.219Z,96491.69
2022-10-21T13:00:31.788Z,96498.78
2022-10-21T13:03:11.564Z,96490.94
2022-10-21T13:05:38.103Z,96486.53
2022-10-21T13:08:20.076Z,96487.06
2022-10-21T13:11:08.815Z,96482.69
2022-10-21T13:13:44.419Z,96483.31
2022-10-21T13:16:19.925Z,96478.75
2022-10-21T13:19:00.919Z,96475.88
2022-10-21T13:21:35.408Z,96472.81
2022-10-21T13:24:06.909Z,96469.88
2022-10-21T13:26:33.596Z,96461.94
2022-10-21T13:29:20.546Z,96469.59
2022-10-21T13:31:47.586Z,96461.81
2022-10-21T13:34:29.241Z,96464.09
2022-10-21T13:36:56.765Z,96458.00
2022-10-21T13:39:31.302Z,96457.22
2022-10-21T13:42:17.295Z,96460.66
2022-10-21T13:44:52.516Z,96465.50
2022-10-21T13:47:30.378Z,96457.56
2022-10-21T13:50:03.690Z,96466.66
2022-10-21T13:52:30.470Z,96458.78
2022-10-21T13:55:02.118Z,96469.28
2022-10-21T13:57:34.731Z,96468.06
2022-10-21T14:00:07.431Z,96467.09
2022-10-21T14:02:35.109Z,96462.34
2022-10-21T14:05:02.210Z,96457.69
2022-10-21T14:07:28.859Z,96462.53
2022-10-21T14:09:58.683Z,96464.41
2022-10-21T14:12:25.251Z,96453.34
2022-10-21T14:14:54.077Z,96463.25
2022-10-21T14:17:24.415Z,96456.94
2022-10-21T14:20:02.390Z,96452.03
2022-10-21T14:22:31.466Z,96445.91
2022-10-21T14:25:01.799Z,96445.16
2022-10-21T14:27:31.251Z,96443.53
2022-10-21T14:30:00.783Z,96450.13
2022-10-21T14:32:28.027Z,96452.66
2022-10-21T14:35:10.123Z,96455.59
2022-10-21T14:37:43.175Z,96458.16
2022-10-21T14:40:24.375Z,96455.66
2022-10-21T14:42:53.329Z,96462.41
2022-10-21T14:45:47.950Z,96472.94
2022-10-21T14:48:14.516Z,96461.09
2022-10-21T14:50:42.076Z,96465.72
2022-10-21T14:53:18.447Z,96462.28
2022-10-21T14:55:47.874Z,96461.97
2022-10-21T15:01:02.977Z,96458.25
2022-10-21T15:03:52.966Z,96449.41
2022-10-21T15:06:26.464Z,96453.22
2022-10-21T15:08:56.248Z,96469.88
2022-10-21T15:11:25.826Z,96463.34
2022-10-21T15:14:15.736Z,96453.31
2022-10-21T15:17:09.859Z,96451.44
2022-10-21T15:19:46.494Z,96458.59
2022-10-21T15:22:26.742Z,96460.56
2022-10-21T15:24:59.095Z,96470.47
2022-10-21T15:27:27.769Z,96460.16
2022-10-21T15:29:55.001Z,96457.34
2022-10-21T15:32:26.857Z,96467.16
2022-10-21T15:34:55.007Z,96468.97
2022-10-21T15:37:21.589Z,96467.75
2022-10-21T15:39:48.619Z,96481.66
2022-10-21T15:42:17.888Z,96471.03
2022-10-21T15:44:48.388Z,96468.38
2022-10-21T15:47:15.023Z,96474.84
2022-10-21T15:49:43.109Z,96484.09
2022-10-21T15:52:10.225Z,96481.44
2022-10-21T15:54:36.823Z,96477.94
2022-10-21T15:57:14.643Z,96478.66
2022-10-21T15:59:41.320Z,96480.31
2022-10-21T16:02:15.418Z,96480.31
2022-10-21T16:04:43.546Z,96472.78
2022-10-21T16:07:24.218Z,96469.59
2022-10-21T16:09:50.961Z,96479.03
2022-10-21T16:12:20.727Z,96484.94
2022-10-21T16:14:47.360Z,96489.19
2022-10-21T16:17:14.567Z,96492.00
2022-10-21T16:19:41.878Z,96485.13
2022-10-21T16:22:14.164Z,96485.38
2022-10-21T16:24:40.855Z,96489.91
2022-10-21T16:27:13.078Z,96486.59
2022-10-21T16:29:40.378Z,96488.69
2022-10-21T16:32:07.341Z,96483.84
2022-10-21T16:34:33.930Z,96489.28
2022-10-21T16:37:01.601Z,96491.81
2022-10-21T16:39:28.250Z,96502.44
2022-10-21T16:41:54.914Z,96504.09
2022-10-21T16:44:21.497Z,96495.16
2022-10-21T16:46:53.557Z,96500.97
2022-10-21T16:49:25.824Z,96505.47
2022-10-21T16:51:53.225Z,96501.28
2022-10-21T16:54:21.152Z,96509.25
2022-10-21T16:56:47.945Z,96515.41
2022-10-21T16:59:14.604Z,96517.91
2022-10-21T17:01:41.207Z,96524.88
2022-10-21T17:04:08.352Z,96519.56
2022-10-21T17:06:35.229Z,96511.59
2022-10-21T17:09:02.011Z,96511.59
2022-10-21T17:11:33.117Z,96515.94
2022-10-21T17:14:04.315Z,96515.25
2022-10-21T17:16:31.220Z,96516.91
2022-10-21T17:18:58.022Z,96516.41
2022-10-21T17:21:27.126Z,96518.81
2022-10-21T17:23:54.934Z,96512.41
2022-10-21T17:26:22.001Z,96525.31
2022-10-21T17:28:49.212Z,96521.41
2022-10-21T17:31:27.545Z,96523.22
2022-10-21T17:33:56.083Z,96528.44
2022-10-21T17:36:22.855Z,96524.53
2022-10-21T17:38:49.810Z,96530.16
2022-10-21T17:41:20.377Z,96525.97
2022-10-21T17:43:48.280Z,96534.09
2022-10-21T17:46:23.167Z,96527.25
2022-10-21T17:48:54.812Z,96532.41
2022-10-21T17:51:23.210Z,96538.69
2022-10-21T17:53:51.574Z,96539.97
2022-10-21T17:56:18.908Z,96543.63
2022-10-21T17:58:49.871Z,96538.72
2022-10-21T18:01:17.014Z,96542.66
2022-10-21T18:03:44.223Z,96538.19
2022-10-21T18:06:13.337Z,96553.41
2022-10-21T18:08:40.036Z,96549.38
2022-10-21T18:11:09.045Z,96553.31
2022-10-21T18:13:36.206Z,96557.34
2022-10-21T18:16:07.908Z,96555.84
2022-10-21T18:18:36.242Z,96553.44
2022-10-21T18:21:05.766Z,96559.19
2022-10-21T18:23:32.972Z,96547.75
2022-10-21T18:26:08.491Z,96543.28
2022-10-21T18:28:35.756Z,96533.38
2022-10-21T18:31:03.110Z,96539.09
2022-10-21T18:33:29.914Z,96535.91
2022-10-21T18:35:56.581Z,96528.78
2022-10-21T18:38:23.401Z,96522.06
2022-10-21T18:40:56.353Z,96524.72
2022-10-21T18:43:28.762Z,96515.94
2022-10-21T18:45:55.393Z,96521.00
2022-10-21T18:48:21.993Z,96525.44
2022-10-21T18:50:48.666Z,96528.22
2022-10-21T18:53:15.282Z,96525.44
2022-10-21T18:55:41.820Z,96528.09
2022-10-21T18:58:08.401Z,96527.53
2022-10-21T19:00:35.008Z,96531.56
2022-10-21T19:03:01.647Z,96535.03
2022-10-21T19:05:28.306Z,96536.56
2022-10-21T19:07:54.875Z,96531.28
2022-10-21T19:10:21.639Z,96545.94
2022-10-21T19:12:48.244Z,96535.63
2022-10-21T19:15:14.924Z,96531.31
2022-10-21T19:17:41.986Z,96541.34
2022-10-21T19:20:09.097Z,96526.56
2022-10-21T19:22:35.713Z,96534.66
2022-10-21T19:25:02.330Z,96550.56
2022-10-21T19:27:28.911Z,96551.25
2022-10-21T19:29:55.502Z,96546.78
2022-10-21T19:32:22.159Z,96551.25
2022-10-21T19:34:48.769Z,96564.22
2022-10-21T19:37:15.347Z,96559.75
2022-10-21T19:39:41.932Z,96564.06
2022-10-21T19:42:08.544Z,96571.06
2022-10-21T19:44:35.211Z,96584.56
2022-10-21T19:47:01.789Z,96589.88
2022-10-21T19:49:28.515Z,96586.53
2022-10-21T19:51:55.154Z,96580.00
2022-10-21T19:54:21.753Z,96575.00
2022-10-21T19:56:48.358Z,96571.06
2022-10-21T19:59:15.043Z,96568.41
2022-10-21T20:01:42.002Z,96568.41
2022-10-21T20:04:08.669Z,96570.38
2022-10-21T20:06:37.214Z,96568.13
2022-10-21T20:09:07.144Z,96565.06
2022-10-21T20:11:34.715Z,96572.06
2022-10-21T20:14:01.555Z,96575.94
2022-10-21T20:16:29.739Z,96573.28
2022-10-21T20:18:57.314Z,96572.84
2022-10-21T20:21:25.096Z,96574.94
2022-10-21T20:23:52.035Z,96568.63
2022-10-21T20:26:19.154Z,96576.72
2022-10-21T20:28:45.797Z,96581.47
2022-10-21T20:31:14.910Z,96586.91
2022-10-21T20:33:43.940Z,96590.13
2022-10-21T20:36:16.540Z,96593.78
2022-10-21T20:38:43.695Z,96590.84
2022-10-21T20:41:15.773Z,96588.75
2022-10-21T20:43:42.849Z,96592.94
2022-10-21T20:46:11.944Z,96602.44
2022-10-21T20:48:43.660Z,96603.28
2022-10-21T20:51:22.465Z,96613.88
2022-10-21T20:53:59.931Z,96630.34
2022-10-21T20:56:31.561Z,96639.69
2022-10-21T20:58:59.149Z,96631.44
2022-10-21T21:01:32.422Z,96623.38
2022-10-21T21:04:06.698Z,96619.47
2022-10-21T21:06:42.838Z,96596.16
2022-10-21T21:11:56.675Z,96601.75
2022-10-21T21:14:23.381Z,96597.56
2022-10-21T21:16:49.957Z,96595.91
2022-10-21T21:19:16.625Z,96574.84
2022-10-21T21:21:43.192Z,96564.09
2022-10-21T21:24:09.802Z,96564.34
2022-10-21T21:26:38.073Z,96567.00
2022-10-21T21:29:07.010Z,96580.69
2022-10-21T21:31:35.398Z,96581.78
2022-10-21T21:34:02.155Z,96577.88
2022-10-21T21:36:28.794Z,96576.06
2022-10-21T21:38:55.506Z,96584.16
2022-10-21T21:41:23.987Z,96573.72
2022-10-21T21:43:51.974Z,96568.94
2022-10-21T21:46:24.231Z,96573.56
2022-10-21T21:49:04.737Z,96583.72
2022-10-21T21:51:33.185Z,96573.09
2022-10-21T21:54:00.274Z,96556.91
2022-10-21T21:56:27.998Z,96567.50
2022-10-21T21:58:57.882Z,96562.34
2022-10-21T22:01:27.549Z,96563.47
2022-10-21T22:03:54.801Z,96567.59
2022-10-21T22:06:24.268Z,96570.38
2022-10-21T22:08:51.711Z,96567.28
2022-10-21T22:11:22.954Z,96567.00
2022-10-21T22:13:50.786Z,96567.00
2022-10-21T22:16:20.074Z,96574.00
2022-10-21T22:18:46.714Z,96580.00
2022-10-21T22:21:15.697Z,96574.69
2022-10-21T22:23:43.554Z,96582.22
2022-10-21T22:26:12.014Z,96575.88
2022-10-21T22:28:39.437Z,96577.41
2022-10-21T22:31:12.088Z,96579.78
2022-10-21T22:33:39.540Z,96576.47
2022-10-21T22:36:06.687Z,96572.28
2022-10-21T22:38:33.800Z,96573.28
2022-10-21T22:41:02.604Z,96562.13
2022-10-21T22:43:30.616Z,96565.06
2022-10-21T22:46:05.327Z,96562.28
2022-10-21T22:48:42.343Z,96567.59
2022-10-21T22:51:11.399Z,96568.97
2022-10-21T22:53:38.141Z,96565.06
2022-10-21T22:56:06.064Z,96562.81
2022-10-21T22:58:33.233Z,96562.81
2022-10-21T23:01:01.737Z,96564.50
2022-10-21T23:03:28.515Z,96555.72
2022-10-21T23:05:55.351Z,96552.38
2022-10-21T23:08:22.276Z,96549.72
2022-10-21T23:10:49.475Z,96550.16
2022-10-21T23:13:16.886Z,96555.03
2022-10-21T23:15:45.240Z,96560.63
2022-10-21T23:18:12.232Z,96570.22
2022-10-21T23:20:38.901Z,96578.19
2022-10-21T23:23:05.619Z,96579.03
2022-10-21T23:25:32.794Z,96575.94
2022-10-21T23:27:59.357Z,96599.53
2022-10-21T23:30:25.985Z,96603.84
2022-10-21T23:32:52.639Z,96597.16
2022-10-21T23:35:20.249Z,96613.34
2022-10-21T23:37:46.919Z,96614.88
2022-10-21T23:40:13.505Z,96629.97
2022-10-21T23:42:42.807Z,96624.25
2022-10-21T23:45:11.345Z,96611.13
2022-10-21T23:47:39.041Z,96621.88
2022-10-21T23:50:07.063Z,96626.34
2022-10-21T23:52:33.681Z,96620.31
2022-10-21T23:55:00.306Z,96621.16
2022-10-21T23:57:26.898Z,96620.91
2022-10-21T23:59:53.459Z,96609.72
